臺北終端管制區 - 桃園南區雷達席

METAR RCTP 310900Z 27008KT 230V310 9999 FEW016 SCT023 31/27 Q1009 NOSIG RMK A2981(D)=

站台狀態:Offline
最後更新:2020-05-31 17:00:01